Time;durP1;ratioP1;P1;durP2;ratioP2;P2;SDS_P1;SDS_P2;PMS_P1;PMS_P2;Temp;Humidity;BMP_temperature;BMP_pressure;BME280_temperature;BME280_humidity;BME280_pressure;Samples;Min_cycle;Max_cycle;Signal;HPM_P1;HPM_P2
2024/01/26 00:00:49;;;;;;;8.93;5.90;;;10.50;40.10;;;;;;10409037;28;20269;-78
2024/01/26 00:05:52;;;;;;;9.93;6.33;;;10.50;39.60;;;;;;10410555;28;20933;-78
2024/01/26 00:10:57;;;;;;;7.17;5.37;;;10.60;39.80;;;;;;10409559;28;20234;-78
2024/01/26 00:16:00;;;;;;;6.00;5.00;;;10.60;40.20;;;;;;10406548;28;20231;-78
2024/01/26 00:21:04;;;;;;;7.17;5.37;;;10.60;39.80;;;;;;10399407;28;20313;-78
2024/01/26 00:26:09;;;;;;;7.67;5.30;;;10.60;39.80;;;;;;10409303;28;20230;-78
2024/01/26 00:31:16;;;;;;;7.17;5.03;;;10.60;40.40;;;;;;10380360;28;20312;-78
2024/01/26 00:36:19;;;;;;;7.77;4.23;;;10.70;40.50;;;;;;10409104;28;20682;-78
2024/01/26 00:41:24;;;;;;;5.80;4.67;;;10.70;39.80;;;;;;10401927;28;20287;-79
2024/01/26 00:46:27;;;;;;;6.07;4.73;;;10.70;40.10;;;;;;10405959;28;20325;-78
2024/01/26 00:51:30;;;;;;;7.80;5.00;;;10.70;39.80;;;;;;10405707;28;20325;-78
2024/01/26 00:56:35;;;;;;;7.77;4.10;;;10.70;39.60;;;;;;10401821;28;20229;-79
2024/01/26 01:01:38;;;;;;;8.40;4.50;;;10.70;40.10;;;;;;10409848;28;20260;-79
2024/01/26 01:06:42;;;;;;;4.60;4.13;;;10.70;39.70;;;;;;10401574;28;20257;-78
2024/01/26 01:11:46;;;;;;;5.53;3.80;;;10.70;39.80;;;;;;10402301;28;20235;-78
2024/01/26 01:16:50;;;;;;;6.00;4.30;;;10.70;40.40;;;;;;10405073;28;20239;-78
2024/01/26 01:21:54;;;;;;;5.50;3.90;;;10.70;39.80;;;;;;10402644;28;20225;-79
2024/01/26 01:26:58;;;;;;;7.47;5.50;;;10.70;40.00;;;;;;10404852;28;20324;-78
2024/01/26 01:32:01;;;;;;;6.97;6.00;;;10.70;40.50;;;;;;10408013;28;20244;-78
2024/01/26 01:37:05;;;;;;;5.20;4.70;;;10.70;39.70;;;;;;10410736;28;20281;-78
2024/01/26 01:42:13;;;;;;;6.20;4.90;;;10.70;39.80;;;;;;10405527;28;20968;-78
2024/01/26 01:47:17;;;;;;;7.07;5.23;;;10.70;40.50;;;;;;10408519;28;20281;-78
2024/01/26 01:52:21;;;;;;;6.87;5.33;;;10.70;39.90;;;;;;10400017;28;20316;-78
2024/01/26 01:57:27;;;;;;;5.70;5.00;;;10.60;40.00;;;;;;10409148;28;20241;-78
2024/01/26 02:02:31;;;;;;;5.13;4.60;;;10.60;40.50;;;;;;10414096;28;20237;-78
2024/01/26 02:07:34;;;;;;;5.87;5.00;;;10.60;40.20;;;;;;10404765;28;20230;-78
2024/01/26 02:12:39;;;;;;;5.90;5.00;;;10.60;40.20;;;;;;10407470;28;20229;-79
2024/01/26 02:17:42;;;;;;;5.30;4.80;;;10.60;40.50;;;;;;10404229;28;20245;-79
2024/01/26 02:22:45;;;;;;;6.43;5.60;;;10.60;40.10;;;;;;10403442;28;20624;-78
2024/01/26 02:27:51;;;;;;;5.43;4.90;;;10.60;40.30;;;;;;10410392;28;20237;-78
2024/01/26 02:32:55;;;;;;;6.07;5.47;;;10.60;40.50;;;;;;10399383;28;20235;-79
2024/01/26 02:37:59;;;;;;;7.03;5.73;;;10.60;40.50;;;;;;10397050;28;20238;-78
2024/01/26 02:43:03;;;;;;;6.63;5.73;;;10.50;40.40;;;;;;10404914;28;20301;-78
2024/01/26 02:48:07;;;;;;;6.57;5.23;;;10.50;40.40;;;;;;10399304;28;20685;-78
2024/01/26 02:53:10;;;;;;;6.23;5.20;;;10.50;40.40;;;;;;10402677;28;20229;-79
2024/01/26 02:58:14;;;;;;;5.73;5.07;;;10.50;40.40;;;;;;10404754;28;20719;-78
2024/01/26 03:03:18;;;;;;;6.10;5.50;;;10.40;40.50;;;;;;10404261;28;20261;-78
2024/01/26 03:08:21;;;;;;;7.13;5.67;;;10.30;40.20;;;;;;10404695;28;20713;-78
2024/01/26 03:13:26;;;;;;;5.47;4.53;;;10.30;40.20;;;;;;10402646;28;20257;-78
2024/01/26 03:18:29;;;;;;;5.10;4.60;;;10.30;40.80;;;;;;10403715;28;20604;-79
2024/01/26 03:23:32;;;;;;;5.20;4.70;;;10.30;40.40;;;;;;10403739;28;20229;-78
2024/01/26 03:28:37;;;;;;;5.23;4.77;;;10.30;40.40;;;;;;10403246;28;20214;-78
2024/01/26 03:33:41;;;;;;;5.70;5.10;;;10.30;40.80;;;;;;10409349;28;20229;-78
2024/01/26 03:38:44;;;;;;;5.50;5.00;;;10.40;40.80;;;;;;10399477;28;20282;-78
2024/01/26 03:43:51;;;;;;;5.60;5.00;;;10.40;40.30;;;;;;10405288;28;20230;-78
2024/01/26 03:48:55;;;;;;;5.50;5.00;;;10.40;40.90;;;;;;10400463;28;20231;-78
2024/01/26 03:53:59;;;;;;;5.47;4.53;;;10.40;41.10;;;;;;10415823;28;20268;-78
2024/01/26 03:59:04;;;;;;;5.07;4.67;;;10.40;42.10;;;;;;10409624;28;20226;-78
2024/01/26 04:04:07;;;;;;;5.13;4.73;;;10.40;43.30;;;;;;10407851;28;20230;-79
2024/01/26 04:09:12;;;;;;;5.30;4.80;;;10.50;43.40;;;;;;10412883;28;20277;-79
2024/01/26 04:14:17;;;;;;;5.10;4.63;;;10.60;43.80;;;;;;10407608;28;20221;-79
2024/01/26 04:19:23;;;;;;;5.27;4.80;;;10.80;44.20;;;;;;10406564;28;20233;-78
2024/01/26 04:24:27;;;;;;;4.83;4.43;;;10.90;43.70;;;;;;10407552;28;20254;-78
2024/01/26 04:29:31;;;;;;;4.20;3.90;;;11.00;43.70;;;;;;10409156;28;20225;-78
2024/01/26 04:34:37;;;;;;;4.93;4.53;;;11.10;44.10;;;;;;10402405;28;20236;-78
2024/01/26 04:39:42;;;;;;;5.13;4.67;;;11.10;44.60;;;;;;10404467;28;20313;-78
2024/01/26 04:44:47;;;;;;;4.90;4.50;;;11.20;44.50;;;;;;10407846;28;20257;-79
2024/01/26 04:49:50;;;;;;;4.83;4.43;;;11.30;44.40;;;;;;10416131;28;20234;-79
2024/01/26 04:54:54;;;;;;;5.17;4.77;;;11.20;43.70;;;;;;10405037;28;20226;-79
2024/01/26 04:59:59;;;;;;;5.00;4.60;;;11.30;43.80;;;;;;10413546;28;20755;-79
2024/01/26 05:05:02;;;;;;;5.50;5.00;;;11.30;44.30;;;;;;10403231;28;20910;-79
2024/01/26 05:10:06;;;;;;;4.90;4.50;;;11.30;43.90;;;;;;10405339;28;20310;-78
2024/01/26 05:15:11;;;;;;;4.77;4.27;;;11.30;44.00;;;;;;10400166;28;20300;-78
2024/01/26 05:20:15;;;;;;;4.80;4.40;;;11.30;44.00;;;;;;10405398;28;20254;-78
2024/01/26 05:25:18;;;;;;;4.33;3.93;;;11.40;43.90;;;;;;10406807;28;20229;-78
2024/01/26 05:30:23;;;;;;;4.30;3.90;;;11.40;43.80;;;;;;10409122;28;20323;-78
2024/01/26 05:35:26;;;;;;;4.37;3.97;;;11.40;44.40;;;;;;10397699;28;20237;-78
2024/01/26 05:40:29;;;;;;;4.30;3.90;;;11.40;43.80;;;;;;10406517;28;20248;-79
2024/01/26 05:45:34;;;;;;;4.10;3.80;;;11.40;43.90;;;;;;10410899;28;20293;-79
2024/01/26 05:50:38;;;;;;;3.47;3.10;;;11.40;44.50;;;;;;10406366;28;20305;-79
2024/01/26 05:55:43;;;;;;;3.70;3.40;;;11.50;44.00;;;;;;10413059;28;20245;-79
2024/01/26 06:00:47;;;;;;;3.87;3.57;;;11.50;44.10;;;;;;10406786;28;20225;-78
2024/01/26 06:05:50;;;;;;;3.63;3.30;;;11.40;44.30;;;;;;10395656;28;20237;-78
2024/01/26 06:10:55;;;;;;;3.77;3.20;;;11.50;44.10;;;;;;10414574;28;20222;-78
2024/01/26 06:16:00;;;;;;;3.03;2.83;;;11.50;44.10;;;;;;10398477;28;20233;-77
2024/01/26 06:21:04;;;;;;;3.50;3.20;;;11.50;44.40;;;;;;10392978;28;20304;-78
2024/01/26 06:26:07;;;;;;;3.47;3.17;;;11.50;44.40;;;;;;10393452;28;20674;-79
2024/01/26 06:31:11;;;;;;;3.50;3.20;;;11.50;44.20;;;;;;10402339;28;20224;-79
2024/01/26 06:36:15;;;;;;;4.27;3.87;;;11.50;44.70;;;;;;10398301;28;20663;-80
2024/01/26 06:41:18;;;;;;;3.30;3.10;;;11.50;44.30;;;;;;10396563;28;20238;-79
2024/01/26 06:46:23;;;;;;;3.00;2.80;;;11.50;44.30;;;;;;10402576;28;21818;-79
2024/01/26 06:51:26;;;;;;;2.80;2.60;;;11.50;44.60;;;;;;10402124;28;20236;-79
2024/01/26 06:56:29;;;;;;;2.93;2.73;;;11.50;44.50;;;;;;10397005;28;20312;-80
2024/01/26 07:01:34;;;;;;;3.00;2.70;;;11.50;44.30;;;;;;10402993;28;20338;-79
2024/01/26 07:06:37;;;;;;;2.90;2.70;;;11.50;44.60;;;;;;10392640;28;20316;-79
2024/01/26 07:11:40;;;;;;;3.27;3.07;;;11.50;44.50;;;;;;10399000;28;20316;-79
2024/01/26 07:16:45;;;;;;;2.70;2.50;;;11.50;44.30;;;;;;10392897;28;20234;-79
2024/01/26 07:21:48;;;;;;;2.83;2.63;;;11.50;44.70;;;;;;10399610;28;20232;-79
2024/01/26 07:26:51;;;;;;;2.63;2.43;;;11.60;44.40;;;;;;10402754;28;20945;-78
2024/01/26 07:31:57;;;;;;;2.73;2.50;;;11.60;44.40;;;;;;10397870;28;20229;-79
2024/01/26 07:37:00;;;;;;;2.70;2.50;;;11.60;44.60;;;;;;10407568;28;20257;-79
2024/01/26 07:42:03;;;;;;;2.23;2.10;;;11.60;44.20;;;;;;10398930;28;20218;-77
2024/01/26 07:47:08;;;;;;;3.20;3.00;;;11.70;44.30;;;;;;10393079;28;20595;-77
2024/01/26 07:52:11;;;;;;;3.30;2.20;;;11.80;44.40;;;;;;10405685;28;20229;-80
2024/01/26 07:57:15;;;;;;;2.63;2.17;;;11.80;44.20;;;;;;10403401;28;20245;-77
2024/01/26 08:02:20;;;;;;;2.67;2.47;;;11.90;44.00;;;;;;10397814;28;20218;-77
2024/01/26 08:07:24;;;;;;;2.13;2.03;;;11.90;44.20;;;;;;10401716;28;20320;-77
2024/01/26 08:12:27;;;;;;;1.93;1.80;;;12.00;44.00;;;;;;10403153;28;20233;-77
2024/01/26 08:17:48;;;;;;;1.60;1.50;;;12.00;43.80;;;;;;10395636;28;20308;-77
2024/01/26 08:22:51;;;;;;;2.40;1.50;;;12.00;43.90;;;;;;10393317;28;20265;-76
2024/01/26 08:27:55;;;;;;;1.90;1.80;;;12.10;43.80;;;;;;10397369;28;21067;-75
2024/01/26 08:33:00;;;;;;;1.50;1.40;;;12.10;43.80;;;;;;10395487;28;20230;-77
2024/01/26 08:38:03;;;;;;;3.30;2.53;;;12.10;43.90;;;;;;10399407;28;20615;-76
2024/01/26 08:43:07;;;;;;;1.70;1.37;;;12.10;43.60;;;;;;10393956;28;20231;-76
2024/01/26 08:48:13;;;;;;;1.90;1.80;;;12.10;44.00;;;;;;10400446;28;20249;-77
2024/01/26 08:53:17;;;;;;;1.60;1.30;;;12.20;43.80;;;;;;10399126;28;20252;-76
2024/01/26 08:58:21;;;;;;;1.50;1.40;;;12.20;43.60;;;;;;10392589;28;20249;-76
2024/01/26 09:03:27;;;;;;;1.80;1.70;;;12.30;43.80;;;;;;10403850;28;20230;-77
2024/01/26 09:08:30;;;;;;;2.03;1.80;;;12.30;43.80;;;;;;10393813;28;20232;-77
2024/01/26 09:13:33;;;;;;;2.50;1.30;;;12.40;43.80;;;;;;10401909;28;20234;-76
2024/01/26 09:18:38;;;;;;;1.73;1.10;;;12.50;43.90;;;;;;10397584;28;20296;-77
2024/01/26 09:23:46;;;;;;;1.40;1.30;;;12.60;44.00;;;;;;10393920;28;20229;-76
2024/01/26 09:28:49;;;;;;;1.23;1.13;;;12.70;43.80;;;;;;10394031;28;20284;-77
2024/01/26 09:33:54;;;;;;;1.90;1.10;;;12.70;43.50;;;;;;10393536;28;20234;-76
2024/01/26 09:38:57;;;;;;;1.00;1.00;;;12.80;43.60;;;;;;10395419;28;20230;-77
2024/01/26 09:44:01;;;;;;;1.07;0.90;;;12.80;43.20;;;;;;10392546;28;20608;-77
2024/01/26 09:49:09;;;;;;;1.00;1.00;;;12.90;43.40;;;;;;10395328;28;20779;-77
2024/01/26 09:54:14;;;;;;;1.37;1.20;;;12.90;43.60;;;;;;10389669;28;20736;-76
2024/01/26 09:59:17;;;;;;;1.40;1.30;;;12.90;43.60;;;;;;10392095;28;20272;-77
2024/01/26 10:04:22;;;;;;;1.27;1.23;;;13.00;43.40;;;;;;10391755;28;20308;-77
2024/01/26 10:09:27;;;;;;;1.67;1.10;;;13.00;43.50;;;;;;10397182;28;20229;-77
2024/01/26 10:14:30;;;;;;;1.20;1.10;;;13.00;43.40;;;;;;10397677;28;20309;-77
2024/01/26 10:19:35;;;;;;;1.30;1.20;;;13.10;43.50;;;;;;10392448;28;20281;-76
2024/01/26 10:24:38;;;;;;;1.13;1.03;;;13.20;43.50;;;;;;10388345;28;20720;-76
2024/01/26 10:29:44;;;;;;;1.00;1.00;;;13.20;43.10;;;;;;10391686;28;20651;-76
2024/01/26 10:34:51;;;;;;;1.10;1.00;;;13.30;43.10;;;;;;10397638;28;20308;-77
2024/01/26 10:39:55;;;;;;;1.30;1.20;;;13.40;43.00;;;;;;10397377;28;20641;-77
2024/01/26 10:45:00;;;;;;;1.23;1.00;;;13.50;43.00;;;;;;10384448;28;20234;-76
2024/01/26 10:50:06;;;;;;;1.40;1.30;;;13.50;43.00;;;;;;10395068;28;20320;-76
2024/01/26 10:55:13;;;;;;;1.70;1.10;;;13.60;43.10;;;;;;10405612;28;20328;-75
2024/01/26 11:00:17;;;;;;;1.00;1.00;;;13.70;43.20;;;;;;10395384;28;20229;-78
2024/01/26 11:05:23;;;;;;;1.80;1.70;;;13.80;43.00;;;;;;10404394;28;20316;-77
2024/01/26 11:10:29;;;;;;;1.40;1.30;;;13.90;42.70;;;;;;10425856;28;20224;-74
2024/01/26 11:15:33;;;;;;;1.40;1.30;;;13.90;42.40;;;;;;10415884;28;20240;-75
2024/01/26 11:20:37;;;;;;;0.90;0.90;;;14.00;42.50;;;;;;10413683;28;20256;-75
2024/01/26 11:25:43;;;;;;;1.40;1.20;;;14.10;42.40;;;;;;10394293;28;20230;-76
2024/01/26 11:30:53;;;;;;;1.83;1.17;;;14.20;42.30;;;;;;10384553;28;20313;-75
2024/01/26 11:36:05;;;;;;;1.17;1.07;;;14.30;41.90;;;;;;10388261;28;20603;-76
2024/01/26 11:41:10;;;;;;;1.77;1.00;;;14.50;41.60;;;;;;10372127;28;20317;-74
2024/01/26 11:46:14;;;;;;;1.10;1.00;;;14.60;41.70;;;;;;10395242;28;20317;-76
2024/01/26 11:51:19;;;;;;;1.80;1.20;;;14.60;41.50;;;;;;10382928;28;20229;-76
2024/01/26 11:56:23;;;;;;;1.37;1.20;;;14.70;41.10;;;;;;10401446;28;20234;-77
2024/01/26 12:01:26;;;;;;;1.60;1.50;;;14.70;41.20;;;;;;10406247;28;20304;-76
2024/01/26 12:06:31;;;;;;;1.83;1.73;;;14.80;41.20;;;;;;10416255;28;20236;-78
2024/01/26 12:11:34;;;;;;;1.47;1.37;;;14.80;40.80;;;;;;10423477;28;20229;-78
2024/01/26 12:16:40;;;;;;;1.93;1.50;;;14.80;41.00;;;;;;10407569;28;20245;-78
2024/01/26 12:21:47;;;;;;;1.87;1.60;;;14.80;40.60;;;;;;10412095;28;20265;-78
2024/01/26 12:26:51;;;;;;;1.70;1.60;;;14.80;40.70;;;;;;10412708;28;20261;-79
2024/01/26 12:32:03;;;;;;;1.60;1.50;;;14.70;40.80;;;;;;10411343;28;20232;-79
2024/01/26 12:37:11;;;;;;;1.10;1.10;;;14.70;40.60;;;;;;10379613;28;20799;-77
2024/01/26 12:42:14;;;;;;;1.40;1.30;;;14.70;40.70;;;;;;10410711;28;20271;-78
2024/01/26 12:47:18;;;;;;;1.40;1.30;;;14.60;41.10;;;;;;10406641;28;20774;-78
2024/01/26 12:52:26;;;;;;;1.90;1.80;;;14.60;40.90;;;;;;10402028;28;20229;-78
2024/01/26 12:57:30;;;;;;;3.73;3.27;;;14.60;40.90;;;;;;10395584;28;20321;-78
2024/01/26 13:02:34;;;;;;;3.07;2.77;;;14.60;41.20;;;;;;10407923;28;20231;-78
2024/01/26 13:07:39;;;;;;;5.30;4.10;;;14.50;41.10;;;;;;10411442;28;20225;-78
2024/01/26 13:12:42;;;;;;;3.40;3.10;;;14.40;41.50;;;;;;10404558;28;20226;-76
2024/01/26 13:17:49;;;;;;;3.23;2.77;;;14.40;41.70;;;;;;10396617;28;20221;-77
2024/01/26 13:22:54;;;;;;;2.57;2.37;;;14.30;41.80;;;;;;10409282;28;20233;-75
2024/01/26 13:27:57;;;;;;;4.47;4.07;;;14.30;41.90;;;;;;10407690;28;20229;-75
2024/01/26 13:33:00;;;;;;;3.90;3.47;;;14.10;42.00;;;;;;10406471;28;20310;-75
2024/01/26 13:38:06;;;;;;;2.00;1.90;;;14.10;42.20;;;;;;10407196;28;20240;-76
2024/01/26 13:43:09;;;;;;;3.33;1.60;;;14.10;42.50;;;;;;10406575;28;20284;-74
2024/01/26 13:48:12;;;;;;;1.60;1.50;;;14.00;42.40;;;;;;10405986;28;20237;-73
2024/01/26 13:53:20;;;;;;;3.43;1.90;;;13.80;42.60;;;;;;10405651;28;20782;-73
2024/01/26 13:58:24;;;;;;;2.20;1.80;;;13.70;43.20;;;;;;10405727;28;20229;-74
2024/01/26 14:03:27;;;;;;;2.10;1.73;;;13.60;43.10;;;;;;10405489;28;20283;-74
2024/01/26 14:08:31;;;;;;;4.43;3.87;;;13.50;43.00;;;;;;10405682;28;20229;-74
2024/01/26 14:13:35;;;;;;;1.87;1.77;;;13.50;43.60;;;;;;10405976;28;20244;-76
2024/01/26 14:18:38;;;;;;;2.47;2.00;;;13.40;43.50;;;;;;10407512;28;20240;-76
2024/01/26 14:23:43;;;;;;;1.90;1.80;;;13.30;43.70;;;;;;10406611;28;20235;-75
2024/01/26 14:28:47;;;;;;;2.23;1.80;;;13.20;44.10;;;;;;10406806;28;20269;-75
2024/01/26 14:33:50;;;;;;;1.60;1.50;;;13.20;44.10;;;;;;10407390;28;20261;-75
2024/01/26 14:38:55;;;;;;;2.00;1.80;;;13.20;44.10;;;;;;10406243;28;20256;-74
2024/01/26 14:43:59;;;;;;;1.70;1.60;;;13.20;44.30;;;;;;10405361;28;20226;-74
2024/01/26 14:49:03;;;;;;;2.13;1.80;;;13.20;44.10;;;;;;10402619;28;20317;-74
2024/01/26 14:54:09;;;;;;;2.30;2.10;;;13.20;44.10;;;;;;10404743;28;20714;-75
2024/01/26 14:59:12;;;;;;;2.27;2.00;;;13.20;44.40;;;;;;10405803;28;20283;-74
2024/01/26 15:04:17;;;;;;;2.10;1.90;;;13.20;44.10;;;;;;10406064;28;20229;-75
2024/01/26 15:09:22;;;;;;;1.70;1.60;;;13.30;44.40;;;;;;10407217;28;20991;-78
2024/01/26 15:14:25;;;;;;;1.90;1.80;;;13.20;44.50;;;;;;10407273;28;20719;-76
2024/01/26 15:19:28;;;;;;;1.70;1.60;;;13.30;44.30;;;;;;10405986;28;20237;-74
2024/01/26 15:24:34;;;;;;;1.73;1.50;;;13.30;44.10;;;;;;10405279;28;20308;-74
2024/01/26 15:29:38;;;;;;;1.67;1.57;;;13.30;44.40;;;;;;10406000;28;20639;-75
2024/01/26 15:34:41;;;;;;;1.73;1.60;;;13.40;44.30;;;;;;10406031;28;20641;-75
2024/01/26 15:39:48;;;;;;;2.30;1.77;;;13.40;44.20;;;;;;10407809;28;20229;-74
2024/01/26 15:44:53;;;;;;;2.37;2.00;;;13.30;44.60;;;;;;10375037;28;20321;-77
2024/01/26 15:49:56;;;;;;;2.23;1.90;;;13.30;44.40;;;;;;10391030;28;20241;-76
2024/01/26 15:55:01;;;;;;;2.70;2.20;;;13.20;44.60;;;;;;10407885;28;20228;-77
2024/01/26 16:00:07;;;;;;;2.57;2.37;;;13.20;45.80;;;;;;10413718;28;20637;-77
2024/01/26 16:05:11;;;;;;;2.23;2.07;;;13.20;44.90;;;;;;10408821;28;20233;-77
2024/01/26 16:10:16;;;;;;;2.47;2.20;;;13.20;44.90;;;;;;10410591;28;20747;-75
2024/01/26 16:15:19;;;;;;;2.00;1.90;;;13.20;45.40;;;;;;10407100;28;20226;-78
2024/01/26 16:20:22;;;;;;;2.33;2.10;;;13.10;45.00;;;;;;10408973;28;20315;-76
2024/01/26 16:25:27;;;;;;;2.63;2.43;;;13.10;45.10;;;;;;10413024;28;20225;-76
2024/01/26 16:30:33;;;;;;;2.40;1.93;;;13.10;45.50;;;;;;10413084;28;20712;-76
2024/01/26 16:35:36;;;;;;;2.77;2.30;;;13.10;45.10;;;;;;10397422;28;20257;-75
2024/01/26 16:40:41;;;;;;;3.03;2.40;;;13.10;45.10;;;;;;10408787;28;20276;-74
2024/01/26 16:45:46;;;;;;;4.50;3.20;;;13.10;45.80;;;;;;10422688;28;20225;-77
2024/01/26 16:50:50;;;;;;;2.23;2.03;;;13.10;45.30;;;;;;10409669;28;20233;-76
2024/01/26 16:55:54;;;;;;;2.50;2.30;;;13.10;45.30;;;;;;10368587;28;20242;-74
2024/01/26 17:00:59;;;;;;;2.70;2.50;;;13.10;45.80;;;;;;10367626;28;20231;-76
2024/01/26 17:06:02;;;;;;;2.60;2.40;;;13.00;46.10;;;;;;10391410;28;20240;-75
2024/01/26 17:11:08;;;;;;;2.40;2.20;;;13.00;45.80;;;;;;10407929;28;20606;-78
2024/01/26 17:16:11;;;;;;;2.83;2.63;;;13.00;46.20;;;;;;10424834;28;20275;-79
2024/01/26 17:21:15;;;;;;;3.97;3.20;;;12.90;45.90;;;;;;10412245;28;20244;-79
2024/01/26 17:26:19;;;;;;;6.53;6.00;;;12.90;46.00;;;;;;10416697;28;20233;-79
2024/01/26 17:31:22;;;;;;;2.57;2.37;;;13.00;46.50;;;;;;10408424;28;20256;-79
2024/01/26 17:36:25;;;;;;;2.27;1.70;;;13.00;46.10;;;;;;10408636;28;20313;-78
2024/01/26 17:41:30;;;;;;;3.77;1.60;;;13.00;46.80;;;;;;10394312;28;20242;-79
2024/01/26 17:46:33;;;;;;;1.70;1.40;;;13.00;46.50;;;;;;10411654;28;20229;-79
2024/01/26 17:51:53;;;;;;;5.03;2.67;;;13.00;46.30;;;;;;10399939;28;20226;-80
2024/01/26 17:56:57;;;;;;;1.77;1.67;;;13.00;46.20;;;;;;10404259;28;20238;-80
2024/01/26 18:02:01;;;;;;;1.13;0.90;;;13.00;46.00;;;;;;10404246;28;20226;-80
2024/01/26 18:07:04;;;;;;;1.00;0.90;;;12.90;40.60;;;;;;10412007;28;20245;-79
2024/01/26 18:12:09;;;;;;;1.73;1.10;;;12.70;40.50;;;;;;10413961;28;20222;-79
2024/01/26 18:17:12;;;;;;;1.40;0.90;;;12.60;39.30;;;;;;10401263;28;20317;-78
2024/01/26 18:22:16;;;;;;;2.07;1.00;;;12.30;39.40;;;;;;10405996;28;20324;-78
2024/01/26 18:27:20;;;;;;;2.07;1.10;;;12.10;39.20;;;;;;10416397;28;20225;-79
2024/01/26 18:32:24;;;;;;;2.53;1.00;;;11.90;38.90;;;;;;10404020;28;20725;-79
2024/01/26 18:37:27;;;;;;;1.40;1.00;;;11.70;39.60;;;;;;10420961;28;20237;-79
2024/01/26 18:42:31;;;;;;;2.63;1.20;;;11.50;39.50;;;;;;10413010;28;20344;-79
2024/01/26 18:47:35;;;;;;;2.80;1.00;;;11.40;39.40;;;;;;10419838;28;20320;-79
2024/01/26 18:52:38;;;;;;;1.90;1.10;;;11.30;39.70;;;;;;10405839;28;20293;-79
2024/01/26 18:57:43;;;;;;;4.37;1.27;;;11.20;39.80;;;;;;10395546;28;20238;-79
2024/01/26 19:02:47;;;;;;;2.63;1.50;;;11.20;39.20;;;;;;10402700;28;20233;-79
2024/01/26 19:07:51;;;;;;;2.63;1.40;;;11.10;39.70;;;;;;10408260;28;20229;-79
2024/01/26 19:13:04;;;;;;;3.47;1.20;;;11.10;39.30;;;;;;10422433;28;20672;-79
2024/01/26 19:18:09;;;;;;;2.53;1.20;;;11.00;39.20;;;;;;10416512;28;20229;-79
2024/01/26 19:23:13;;;;;;;2.57;1.40;;;10.90;39.20;;;;;;10424830;28;20656;-79
2024/01/26 19:28:18;;;;;;;4.00;1.40;;;10.80;39.00;;;;;;10418252;28;20288;-79
2024/01/26 19:33:21;;;;;;;2.30;1.23;;;10.80;39.00;;;;;;10411420;28;20317;-78
2024/01/26 19:38:24;;;;;;;1.93;1.30;;;10.70;39.40;;;;;;10414597;28;20252;-79
2024/01/26 19:43:29;;;;;;;2.63;1.10;;;10.70;39.40;;;;;;10398193;28;20230;-79
2024/01/26 19:48:33;;;;;;;2.50;1.20;;;10.60;39.20;;;;;;10407035;28;20230;-79
2024/01/26 19:53:40;;;;;;;4.47;1.40;;;10.60;39.40;;;;;;10414518;28;21051;-78
2024/01/26 19:58:46;;;;;;;2.37;1.40;;;10.60;39.10;;;;;;10406589;28;20233;-78
2024/01/26 20:03:50;;;;;;;1.73;1.13;;;10.50;38.90;;;;;;10406640;28;20241;-77
2024/01/26 20:08:54;;;;;;;2.47;1.20;;;10.50;38.90;;;;;;10405841;28;20919;-77
2024/01/26 20:14:00;;;;;;;2.80;1.10;;;10.50;38.90;;;;;;10404665;28;20237;-78
2024/01/26 20:19:03;;;;;;;3.20;1.40;;;10.40;38.40;;;;;;10381346;28;20234;-78
2024/01/26 20:24:07;;;;;;;3.93;1.10;;;10.40;38.70;;;;;;10406087;28;20324;-78
2024/01/26 20:29:16;;;;;;;3.10;1.40;;;10.30;39.00;;;;;;10405757;28;20233;-77
2024/01/26 20:34:19;;;;;;;1.93;1.20;;;10.30;38.50;;;;;;10404596;28;20312;-78
2024/01/26 20:39:23;;;;;;;4.27;1.87;;;10.30;39.00;;;;;;10404935;28;20242;-77
2024/01/26 20:44:28;;;;;;;3.27;1.30;;;10.30;38.80;;;;;;10404924;28;20887;-78
2024/01/26 20:49:32;;;;;;;2.83;1.20;;;10.20;38.60;;;;;;10404900;28;20234;-79
2024/01/26 20:54:37;;;;;;;2.27;1.10;;;10.20;38.40;;;;;;10397550;28;20233;-77
2024/01/26 20:59:42;;;;;;;3.43;1.50;;;10.10;38.10;;;;;;10393510;28;20237;-77
2024/01/26 21:04:45;;;;;;;2.43;1.20;;;10.00;37.30;;;;;;10392778;28;20233;-77
2024/01/26 21:09:48;;;;;;;2.43;1.10;;;9.90;38.50;;;;;;10393766;28;20299;-77
2024/01/26 21:14:53;;;;;;;3.47;1.70;;;9.70;38.40;;;;;;10397593;28;20316;-77
2024/01/26 21:19:59;;;;;;;6.80;3.20;;;9.60;38.30;;;;;;10395654;28;20804;-77
2024/01/26 21:25:03;;;;;;;12.60;6.83;;;9.60;38.80;;;;;;10393421;28;20234;-77
2024/01/26 21:30:09;;;;;;;4.40;1.50;;;9.60;38.90;;;;;;10403387;28;20255;-77
2024/01/26 21:35:12;;;;;;;2.13;1.47;;;9.60;38.80;;;;;;10375490;28;20301;-77
2024/01/26 21:40:16;;;;;;;3.50;1.40;;;9.50;38.80;;;;;;10381879;28;20317;-77
2024/01/26 21:45:20;;;;;;;2.27;1.20;;;9.50;39.00;;;;;;10392934;28;20249;-77
2024/01/26 21:50:24;;;;;;;2.63;1.20;;;9.50;38.40;;;;;;10363870;28;20231;-76
2024/01/26 21:55:28;;;;;;;2.63;1.40;;;9.50;38.40;;;;;;10363683;28;20230;-76
2024/01/26 22:00:32;;;;;;;2.53;1.27;;;9.40;38.70;;;;;;10371231;28;20313;-76
2024/01/26 22:05:36;;;;;;;3.00;1.30;;;9.40;38.60;;;;;;10362883;28;20226;-77
2024/01/26 22:10:39;;;;;;;2.90;1.40;;;9.40;38.90;;;;;;10362851;28;20252;-77
2024/01/26 22:15:44;;;;;;;3.20;1.73;;;9.30;38.70;;;;;;10362059;28;20720;-77
2024/01/26 22:20:47;;;;;;;5.20;2.10;;;9.30;38.40;;;;;;10400347;28;20827;-77
2024/01/26 22:25:50;;;;;;;5.03;2.03;;;9.20;38.60;;;;;;10403321;28;20260;-77
2024/01/26 22:30:55;;;;;;;3.90;2.53;;;9.20;39.60;;;;;;10403340;28;20261;-77
2024/01/26 22:35:58;;;;;;;4.03;1.70;;;9.10;38.70;;;;;;10403124;28;20247;-77
2024/01/26 22:41:02;;;;;;;3.50;1.30;;;9.10;38.70;;;;;;10402544;28;20225;-76
2024/01/26 22:46:07;;;;;;;1.80;1.30;;;9.10;38.90;;;;;;10402785;28;20759;-77
2024/01/26 22:51:11;;;;;;;2.53;1.40;;;9.10;38.80;;;;;;10402571;28;20623;-76
2024/01/26 22:56:14;;;;;;;2.70;1.33;;;9.10;39.00;;;;;;10402719;28;20283;-76
2024/01/26 23:01:19;;;;;;;3.17;1.40;;;9.10;38.90;;;;;;10402956;28;20229;-77
2024/01/26 23:06:22;;;;;;;2.80;1.30;;;9.10;38.90;;;;;;10402775;28;20392;-77
2024/01/26 23:11:27;;;;;;;3.90;1.80;;;9.10;38.90;;;;;;10402887;28;20658;-76
2024/01/26 23:16:32;;;;;;;4.17;2.17;;;9.00;38.80;;;;;;10402413;28;20310;-77
2024/01/26 23:21:35;;;;;;;3.70;1.83;;;9.00;38.60;;;;;;10402059;28;20312;-76
2024/01/26 23:26:38;;;;;;;2.73;1.37;;;8.90;38.80;;;;;;10401931;28;20324;-77
2024/01/26 23:31:43;;;;;;;2.73;1.13;;;8.80;38.80;;;;;;10398765;28;20318;-76
2024/01/26 23:36:46;;;;;;;4.77;1.60;;;8.80;38.70;;;;;;10361117;28;20308;-76
2024/01/26 23:41:51;;;;;;;2.93;1.37;;;8.80;39.00;;;;;;10361211;28;20331;-76
2024/01/26 23:46:55;;;;;;;2.37;1.30;;;8.70;38.80;;;;;;10360877;28;20234;-76
2024/01/26 23:51:59;;;;;;;2.67;1.30;;;8.70;38.60;;;;;;10361064;28;20234;-76
2024/01/26 23:57:02;;;;;;;3.00;1.40;;;8.60;38.60;;;;;;10360445;28;20314;-76
